sensor_id;sensor_type;location;lat;lon;timestamp;P1;durP1;ratioP1;P2;durP2;ratioP2
65636;SDS011;52327;42.622;23.316;2022-12-08T00:01:33;11.90;;;5.65;;
65636;SDS011;52327;42.622;23.316;2022-12-08T00:03:59;4.82;;;4.05;;
65636;SDS011;52327;42.622;23.316;2022-12-08T00:09:14;7.60;;;5.60;;
65636;SDS011;52327;42.622;23.316;2022-12-08T00:11:58;9.02;;;5.53;;
65636;SDS011;52327;42.622;23.316;2022-12-08T00:14:35;8.95;;;5.72;;
65636;SDS011;52327;42.622;23.316;2022-12-08T00:17:03;5.80;;;4.45;;
65636;SDS011;52327;42.622;23.316;2022-12-08T00:19:30;6.60;;;3.67;;
65636;SDS011;52327;42.622;23.316;2022-12-08T00:21:56;4.10;;;3.05;;
65636;SDS011;52327;42.622;23.316;2022-12-08T00:24:23;12.20;;;6.50;;
65636;SDS011;52327;42.622;23.316;2022-12-08T00:26:53;6.82;;;4.38;;
65636;SDS011;52327;42.622;23.316;2022-12-08T00:29:18;5.18;;;3.22;;
65636;SDS011;52327;42.622;23.316;2022-12-08T00:31:44;9.38;;;4.40;;
65636;SDS011;52327;42.622;23.316;2022-12-08T00:34:10;6.10;;;4.22;;
65636;SDS011;52327;42.622;23.316;2022-12-08T00:36:36;12.30;;;4.68;;
65636;SDS011;52327;42.622;23.316;2022-12-08T00:39:02;4.07;;;2.55;;
65636;SDS011;52327;42.622;23.316;2022-12-08T00:41:28;5.80;;;3.63;;
65636;SDS011;52327;42.622;23.316;2022-12-08T00:44:13;6.88;;;3.90;;
65636;SDS011;52327;42.622;23.316;2022-12-08T00:46:41;7.60;;;5.65;;
65636;SDS011;52327;42.622;23.316;2022-12-08T00:49:07;7.68;;;4.80;;
65636;SDS011;52327;42.622;23.316;2022-12-08T00:51:32;7.25;;;3.67;;
65636;SDS011;52327;42.622;23.316;2022-12-08T00:53:58;5.57;;;3.80;;
65636;SDS011;52327;42.622;23.316;2022-12-08T00:56:24;6.43;;;3.65;;
65636;SDS011;52327;42.622;23.316;2022-12-08T00:58:50;4.78;;;3.92;;
65636;SDS011;52327;42.622;23.316;2022-12-08T01:01:16;8.15;;;3.92;;
65636;SDS011;52327;42.622;23.316;2022-12-08T01:03:41;5.38;;;3.40;;
65636;SDS011;52327;42.622;23.316;2022-12-08T01:06:07;7.43;;;3.78;;
65636;SDS011;52327;42.622;23.316;2022-12-08T01:08:36;5.22;;;4.63;;
65636;SDS011;52327;42.622;23.316;2022-12-08T01:11:03;4.78;;;3.33;;
65636;SDS011;52327;42.622;23.316;2022-12-08T01:13:29;8.10;;;4.00;;
65636;SDS011;52327;42.622;23.316;2022-12-08T01:15:55;3.70;;;2.88;;
65636;SDS011;52327;42.622;23.316;2022-12-08T01:18:20;2.50;;;2.20;;
65636;SDS011;52327;42.622;23.316;2022-12-08T01:20:46;11.75;;;2.65;;
65636;SDS011;52327;42.622;23.316;2022-12-08T01:23:11;3.22;;;2.67;;
65636;SDS011;52327;42.622;23.316;2022-12-08T01:25:36;11.07;;;3.63;;
65636;SDS011;52327;42.622;23.316;2022-12-08T01:28:02;3.67;;;2.17;;
65636;SDS011;52327;42.622;23.316;2022-12-08T01:30:27;4.80;;;2.25;;
65636;SDS011;52327;42.622;23.316;2022-12-08T01:32:53;6.53;;;3.05;;
65636;SDS011;52327;42.622;23.316;2022-12-08T01:35:18;4.07;;;3.33;;
65636;SDS011;52327;42.622;23.316;2022-12-08T01:37:44;3.25;;;2.08;;
65636;SDS011;52327;42.622;23.316;2022-12-08T01:40:09;4.90;;;2.80;;
65636;SDS011;52327;42.622;23.316;2022-12-08T01:42:35;4.75;;;2.78;;
65636;SDS011;52327;42.622;23.316;2022-12-08T01:45:21;17.45;;;3.50;;
65636;SDS011;52327;42.622;23.316;2022-12-08T01:47:51;4.28;;;2.67;;
65636;SDS011;52327;42.622;23.316;2022-12-08T01:50:20;3.00;;;2.70;;
65636;SDS011;52327;42.622;23.316;2022-12-08T01:52:48;3.42;;;1.50;;
65636;SDS011;52327;42.622;23.316;2022-12-08T01:55:24;4.43;;;2.70;;
65636;SDS011;52327;42.622;23.316;2022-12-08T01:57:55;2.95;;;2.42;;
65636;SDS011;52327;42.622;23.316;2022-12-08T02:00:25;3.20;;;2.15;;
65636;SDS011;52327;42.622;23.316;2022-12-08T02:02:56;3.20;;;1.63;;
65636;SDS011;52327;42.622;23.316;2022-12-08T02:05:25;3.53;;;2.85;;
65636;SDS011;52327;42.622;23.316;2022-12-08T02:07:52;2.97;;;1.90;;
65636;SDS011;52327;42.622;23.316;2022-12-08T02:10:20;6.03;;;2.60;;
65636;SDS011;52327;42.622;23.316;2022-12-08T02:12:47;1.98;;;1.75;;
65636;SDS011;52327;42.622;23.316;2022-12-08T02:15:15;2.00;;;1.80;;
65636;SDS011;52327;42.622;23.316;2022-12-08T02:36:28;6.60;;;2.63;;
65636;SDS011;52327;42.622;23.316;2022-12-08T02:44:22;3.65;;;2.75;;
65636;SDS011;52327;42.622;23.316;2022-12-08T02:47:15;2.30;;;2.13;;
65636;SDS011;52327;42.622;23.316;2022-12-08T02:49:43;3.33;;;1.95;;
65636;SDS011;52327;42.622;23.316;2022-12-08T02:54:37;1.15;;;1.05;;
65636;SDS011;52327;42.622;23.316;2022-12-08T03:05:19;4.05;;;2.50;;
65636;SDS011;52327;42.622;23.316;2022-12-08T03:08:06;5.30;;;3.20;;
65636;SDS011;52327;42.622;23.316;2022-12-08T03:10:56;4.68;;;2.67;;
65636;SDS011;52327;42.622;23.316;2022-12-08T03:13:33;4.38;;;2.42;;
65636;SDS011;52327;42.622;23.316;2022-12-08T03:16:05;1.98;;;1.83;;
65636;SDS011;52327;42.622;23.316;2022-12-08T03:18:34;2.50;;;1.98;;
65636;SDS011;52327;42.622;23.316;2022-12-08T03:21:03;3.55;;;2.53;;
65636;SDS011;52327;42.622;23.316;2022-12-08T03:23:31;4.85;;;2.42;;
65636;SDS011;52327;42.622;23.316;2022-12-08T03:26:10;4.00;;;2.33;;
65636;SDS011;52327;42.622;23.316;2022-12-08T03:28:40;6.28;;;2.63;;
65636;SDS011;52327;42.622;23.316;2022-12-08T03:31:06;5.50;;;2.95;;
65636;SDS011;52327;42.622;23.316;2022-12-08T03:33:36;6.45;;;3.33;;
65636;SDS011;52327;42.622;23.316;2022-12-08T03:36:04;7.22;;;3.95;;
65636;SDS011;52327;42.622;23.316;2022-12-08T03:38:36;4.13;;;2.97;;
65636;SDS011;52327;42.622;23.316;2022-12-08T03:41:03;2.53;;;1.92;;
65636;SDS011;52327;42.622;23.316;2022-12-08T03:43:56;3.13;;;2.22;;
65636;SDS011;52327;42.622;23.316;2022-12-08T03:46:24;4.28;;;2.33;;
65636;SDS011;52327;42.622;23.316;2022-12-08T03:48:51;4.00;;;2.00;;
65636;SDS011;52327;42.622;23.316;2022-12-08T03:51:17;2.70;;;1.67;;
65636;SDS011;52327;42.622;23.316;2022-12-08T03:53:43;4.00;;;2.92;;
65636;SDS011;52327;42.622;23.316;2022-12-08T03:58:48;2.28;;;1.75;;
65636;SDS011;52327;42.622;23.316;2022-12-08T04:01:14;3.38;;;2.30;;
65636;SDS011;52327;42.622;23.316;2022-12-08T04:03:39;3.78;;;2.67;;
65636;SDS011;52327;42.622;23.316;2022-12-08T04:06:05;3.65;;;2.03;;
65636;SDS011;52327;42.622;23.316;2022-12-08T04:08:31;3.33;;;1.83;;
65636;SDS011;52327;42.622;23.316;2022-12-08T04:10:56;8.00;;;3.22;;
65636;SDS011;52327;42.622;23.316;2022-12-08T04:13:22;4.45;;;2.90;;
65636;SDS011;52327;42.622;23.316;2022-12-08T04:15:47;4.93;;;2.45;;
65636;SDS011;52327;42.622;23.316;2022-12-08T04:18:13;4.50;;;3.22;;
65636;SDS011;52327;42.622;23.316;2022-12-08T04:20:39;7.95;;;3.92;;
65636;SDS011;52327;42.622;23.316;2022-12-08T04:23:06;7.05;;;5.18;;
65636;SDS011;52327;42.622;23.316;2022-12-08T04:25:32;9.50;;;6.03;;
65636;SDS011;52327;42.622;23.316;2022-12-08T04:27:58;5.07;;;3.40;;
65636;SDS011;52327;42.622;23.316;2022-12-08T04:30:23;3.13;;;2.83;;
65636;SDS011;52327;42.622;23.316;2022-12-08T04:32:48;3.60;;;2.30;;
65636;SDS011;52327;42.622;23.316;2022-12-08T04:35:14;1.95;;;1.80;;
65636;SDS011;52327;42.622;23.316;2022-12-08T04:37:39;4.80;;;3.90;;
65636;SDS011;52327;42.622;23.316;2022-12-08T04:40:05;2.42;;;2.17;;
65636;SDS011;52327;42.622;23.316;2022-12-08T04:42:31;7.97;;;4.32;;
65636;SDS011;52327;42.622;23.316;2022-12-08T04:44:56;6.03;;;4.03;;
65636;SDS011;52327;42.622;23.316;2022-12-08T04:47:21;6.93;;;4.15;;
65636;SDS011;52327;42.622;23.316;2022-12-08T04:49:47;8.57;;;5.78;;
65636;SDS011;52327;42.622;23.316;2022-12-08T04:52:12;4.70;;;3.80;;
65636;SDS011;52327;42.622;23.316;2022-12-08T04:54:38;6.35;;;4.10;;
65636;SDS011;52327;42.622;23.316;2022-12-08T04:57:03;5.70;;;3.58;;
65636;SDS011;52327;42.622;23.316;2022-12-08T04:59:28;5.53;;;3.70;;
65636;SDS011;52327;42.622;23.316;2022-12-08T05:01:54;6.10;;;5.45;;
65636;SDS011;52327;42.622;23.316;2022-12-08T05:04:19;4.43;;;2.72;;
65636;SDS011;52327;42.622;23.316;2022-12-08T05:06:45;5.60;;;4.43;;
65636;SDS011;52327;42.622;23.316;2022-12-08T05:09:10;9.00;;;5.78;;
65636;SDS011;52327;42.622;23.316;2022-12-08T05:11:36;11.18;;;5.53;;
65636;SDS011;52327;42.622;23.316;2022-12-08T05:14:07;9.02;;;6.50;;
65636;SDS011;52327;42.622;23.316;2022-12-08T05:16:35;13.82;;;6.57;;
65636;SDS011;52327;42.622;23.316;2022-12-08T05:19:02;8.45;;;6.05;;
65636;SDS011;52327;42.622;23.316;2022-12-08T05:21:28;5.32;;;3.53;;
65636;SDS011;52327;42.622;23.316;2022-12-08T05:23:53;9.88;;;7.07;;
65636;SDS011;52327;42.622;23.316;2022-12-08T05:26:18;9.80;;;4.35;;
65636;SDS011;52327;42.622;23.316;2022-12-08T05:28:44;5.60;;;4.15;;
65636;SDS011;52327;42.622;23.316;2022-12-08T05:31:13;7.00;;;4.35;;
65636;SDS011;52327;42.622;23.316;2022-12-08T05:33:39;5.55;;;3.60;;
65636;SDS011;52327;42.622;23.316;2022-12-08T05:36:06;8.75;;;4.30;;
65636;SDS011;52327;42.622;23.316;2022-12-08T05:38:32;5.28;;;4.40;;
65636;SDS011;52327;42.622;23.316;2022-12-08T05:40:57;8.45;;;4.30;;
65636;SDS011;52327;42.622;23.316;2022-12-08T05:43:23;6.38;;;4.88;;
65636;SDS011;52327;42.622;23.316;2022-12-08T05:45:49;7.65;;;5.18;;
65636;SDS011;52327;42.622;23.316;2022-12-08T05:48:14;8.05;;;6.78;;
65636;SDS011;52327;42.622;23.316;2022-12-08T05:50:44;9.90;;;5.40;;
65636;SDS011;52327;42.622;23.316;2022-12-08T05:53:10;10.13;;;6.40;;
65636;SDS011;52327;42.622;23.316;2022-12-08T05:55:36;8.90;;;5.70;;
65636;SDS011;52327;42.622;23.316;2022-12-08T05:58:01;7.60;;;5.28;;
65636;SDS011;52327;42.622;23.316;2022-12-08T06:00:27;6.25;;;4.65;;
65636;SDS011;52327;42.622;23.316;2022-12-08T06:02:52;9.30;;;5.70;;
65636;SDS011;52327;42.622;23.316;2022-12-08T06:05:17;7.50;;;5.10;;
65636;SDS011;52327;42.622;23.316;2022-12-08T06:07:43;7.00;;;3.35;;
65636;SDS011;52327;42.622;23.316;2022-12-08T06:10:08;6.72;;;4.38;;
65636;SDS011;52327;42.622;23.316;2022-12-08T06:12:34;4.80;;;3.78;;
65636;SDS011;52327;42.622;23.316;2022-12-08T06:14:59;3.40;;;2.65;;
65636;SDS011;52327;42.622;23.316;2022-12-08T06:17:25;3.90;;;3.08;;
65636;SDS011;52327;42.622;23.316;2022-12-08T06:19:50;3.83;;;3.08;;
65636;SDS011;52327;42.622;23.316;2022-12-08T06:22:16;8.65;;;3.97;;
65636;SDS011;52327;42.622;23.316;2022-12-08T06:24:41;4.32;;;3.15;;
65636;SDS011;52327;42.622;23.316;2022-12-08T06:27:06;7.75;;;5.05;;
65636;SDS011;52327;42.622;23.316;2022-12-08T06:29:32;6.53;;;3.25;;
65636;SDS011;52327;42.622;23.316;2022-12-08T06:31:57;9.40;;;4.47;;
65636;SDS011;52327;42.622;23.316;2022-12-08T06:34:22;4.72;;;2.60;;
65636;SDS011;52327;42.622;23.316;2022-12-08T06:36:48;7.30;;;4.80;;
65636;SDS011;52327;42.622;23.316;2022-12-08T06:39:13;10.45;;;5.72;;
65636;SDS011;52327;42.622;23.316;2022-12-08T06:41:39;6.35;;;3.17;;
65636;SDS011;52327;42.622;23.316;2022-12-08T06:44:24;11.05;;;3.88;;
65636;SDS011;52327;42.622;23.316;2022-12-08T06:46:49;4.05;;;2.67;;
65636;SDS011;52327;42.622;23.316;2022-12-08T06:49:15;3.28;;;3.00;;
65636;SDS011;52327;42.622;23.316;2022-12-08T06:51:40;2.72;;;2.47;;
65636;SDS011;52327;42.622;23.316;2022-12-08T06:54:06;3.47;;;3.05;;
65636;SDS011;52327;42.622;23.316;2022-12-08T06:56:31;4.82;;;3.30;;
65636;SDS011;52327;42.622;23.316;2022-12-08T06:58:56;3.55;;;2.20;;
65636;SDS011;52327;42.622;23.316;2022-12-08T07:01:22;11.02;;;6.80;;
65636;SDS011;52327;42.622;23.316;2022-12-08T07:03:47;6.32;;;3.95;;
65636;SDS011;52327;42.622;23.316;2022-12-08T07:06:22;6.93;;;3.75;;
65636;SDS011;52327;42.622;23.316;2022-12-08T07:08:49;5.35;;;3.28;;
65636;SDS011;52327;42.622;23.316;2022-12-08T07:11:14;5.32;;;3.58;;
65636;SDS011;52327;42.622;23.316;2022-12-08T07:13:40;5.00;;;4.43;;
65636;SDS011;52327;42.622;23.316;2022-12-08T07:16:09;9.23;;;6.03;;
65636;SDS011;52327;42.622;23.316;2022-12-08T07:18:35;14.65;;;8.50;;
65636;SDS011;52327;42.622;23.316;2022-12-08T07:21:03;19.48;;;9.60;;
65636;SDS011;52327;42.622;23.316;2022-12-08T07:23:30;14.75;;;9.70;;
65636;SDS011;52327;42.622;23.316;2022-12-08T07:25:58;10.13;;;7.72;;
65636;SDS011;52327;42.622;23.316;2022-12-08T07:28:35;15.95;;;8.77;;
65636;SDS011;52327;42.622;23.316;2022-12-08T07:31:01;18.92;;;9.45;;
65636;SDS011;52327;42.622;23.316;2022-12-08T07:33:27;13.18;;;8.02;;
65636;SDS011;52327;42.622;23.316;2022-12-08T07:35:53;13.05;;;7.65;;
65636;SDS011;52327;42.622;23.316;2022-12-08T07:38:23;9.60;;;7.35;;
65636;SDS011;52327;42.622;23.316;2022-12-08T07:40:49;12.68;;;9.15;;
65636;SDS011;52327;42.622;23.316;2022-12-08T07:43:15;13.70;;;8.20;;
65636;SDS011;52327;42.622;23.316;2022-12-08T07:45:41;11.63;;;8.18;;
65636;SDS011;52327;42.622;23.316;2022-12-08T07:48:06;9.82;;;6.72;;
65636;SDS011;52327;42.622;23.316;2022-12-08T07:50:32;14.25;;;8.65;;
65636;SDS011;52327;42.622;23.316;2022-12-08T07:52:57;22.10;;;9.80;;
65636;SDS011;52327;42.622;23.316;2022-12-08T07:55:23;19.95;;;10.23;;
65636;SDS011;52327;42.622;23.316;2022-12-08T07:57:49;23.02;;;14.60;;
65636;SDS011;52327;42.622;23.316;2022-12-08T08:00:15;16.48;;;11.68;;
65636;SDS011;52327;42.622;23.316;2022-12-08T08:02:42;46.60;;;18.77;;
65636;SDS011;52327;42.622;23.316;2022-12-08T08:05:07;25.92;;;13.13;;
65636;SDS011;52327;42.622;23.316;2022-12-08T08:07:33;17.45;;;11.80;;
65636;SDS011;52327;42.622;23.316;2022-12-08T08:09:59;27.30;;;10.77;;
65636;SDS011;52327;42.622;23.316;2022-12-08T08:12:28;15.88;;;11.48;;
65636;SDS011;52327;42.622;23.316;2022-12-08T08:14:53;17.83;;;10.02;;
65636;SDS011;52327;42.622;23.316;2022-12-08T08:17:18;16.48;;;11.43;;
65636;SDS011;52327;42.622;23.316;2022-12-08T08:19:44;15.43;;;11.20;;
65636;SDS011;52327;42.622;23.316;2022-12-08T08:22:19;34.97;;;15.65;;
65636;SDS011;52327;42.622;23.316;2022-12-08T08:24:44;27.08;;;15.65;;
65636;SDS011;52327;42.622;23.316;2022-12-08T08:27:10;25.95;;;16.52;;
65636;SDS011;52327;42.622;23.316;2022-12-08T08:29:35;17.60;;;12.00;;
65636;SDS011;52327;42.622;23.316;2022-12-08T08:32:01;24.85;;;14.18;;
65636;SDS011;52327;42.622;23.316;2022-12-08T08:34:26;20.65;;;11.75;;
65636;SDS011;52327;42.622;23.316;2022-12-08T08:36:51;11.93;;;9.20;;
65636;SDS011;52327;42.622;23.316;2022-12-08T08:39:17;14.98;;;10.02;;
65636;SDS011;52327;42.622;23.316;2022-12-08T08:41:45;12.13;;;8.80;;
65636;SDS011;52327;42.622;23.316;2022-12-08T08:44:12;13.77;;;9.32;;
65636;SDS011;52327;42.622;23.316;2022-12-08T08:46:39;13.38;;;10.20;;
65636;SDS011;52327;42.622;23.316;2022-12-08T08:49:04;13.18;;;10.00;;
65636;SDS011;52327;42.622;23.316;2022-12-08T08:51:30;22.85;;;9.57;;
65636;SDS011;52327;42.622;23.316;2022-12-08T08:53:55;21.27;;;11.15;;
65636;SDS011;52327;42.622;23.316;2022-12-08T08:56:24;25.15;;;12.45;;
65636;SDS011;52327;42.622;23.316;2022-12-08T08:58:50;16.55;;;11.57;;
65636;SDS011;52327;42.622;23.316;2022-12-08T09:01:18;17.20;;;11.15;;
65636;SDS011;52327;42.622;23.316;2022-12-08T09:03:45;20.02;;;11.52;;
65636;SDS011;52327;42.622;23.316;2022-12-08T09:06:12;21.63;;;13.20;;
65636;SDS011;52327;42.622;23.316;2022-12-08T09:08:38;19.45;;;12.25;;
65636;SDS011;52327;42.622;23.316;2022-12-08T09:11:04;21.10;;;12.45;;
65636;SDS011;52327;42.622;23.316;2022-12-08T09:13:30;18.70;;;11.38;;
65636;SDS011;52327;42.622;23.316;2022-12-08T09:15:55;19.15;;;12.30;;
65636;SDS011;52327;42.622;23.316;2022-12-08T09:18:21;23.30;;;12.82;;
65636;SDS011;52327;42.622;23.316;2022-12-08T09:20:46;20.52;;;9.68;;
65636;SDS011;52327;42.622;23.316;2022-12-08T09:23:12;15.43;;;10.45;;
65636;SDS011;52327;42.622;23.316;2022-12-08T09:25:37;24.70;;;13.85;;
65636;SDS011;52327;42.622;23.316;2022-12-08T09:28:03;21.17;;;13.93;;
65636;SDS011;52327;42.622;23.316;2022-12-08T09:30:28;17.40;;;10.82;;
65636;SDS011;52327;42.622;23.316;2022-12-08T09:32:54;24.00;;;11.13;;
65636;SDS011;52327;42.622;23.316;2022-12-08T09:35:19;16.38;;;9.55;;
65636;SDS011;52327;42.622;23.316;2022-12-08T09:37:45;13.80;;;9.52;;
65636;SDS011;52327;42.622;23.316;2022-12-08T09:40:11;18.92;;;11.75;;
65636;SDS011;52327;42.622;23.316;2022-12-08T09:43:00;17.33;;;11.75;;
65636;SDS011;52327;42.622;23.316;2022-12-08T09:45:34;17.98;;;10.18;;
65636;SDS011;52327;42.622;23.316;2022-12-08T09:48:04;12.13;;;9.07;;
65636;SDS011;52327;42.622;23.316;2022-12-08T09:50:33;18.23;;;11.32;;
65636;SDS011;52327;42.622;23.316;2022-12-08T09:53:08;15.85;;;10.77;;
65636;SDS011;52327;42.622;23.316;2022-12-08T09:55:43;21.92;;;13.63;;
65636;SDS011;52327;42.622;23.316;2022-12-08T09:58:36;15.50;;;12.27;;
65636;SDS011;52327;42.622;23.316;2022-12-08T10:01:12;22.90;;;14.07;;
65636;SDS011;52327;42.622;23.316;2022-12-08T10:03:38;18.13;;;9.88;;
65636;SDS011;52327;42.622;23.316;2022-12-08T10:06:26;17.65;;;10.13;;
65636;SDS011;52327;42.622;23.316;2022-12-08T10:09:17;11.23;;;8.25;;
65636;SDS011;52327;42.622;23.316;2022-12-08T10:15:17;13.93;;;8.70;;
65636;SDS011;52327;42.622;23.316;2022-12-08T10:17:55;13.85;;;8.65;;
65636;SDS011;52327;42.622;23.316;2022-12-08T10:20:26;14.63;;;9.05;;
65636;SDS011;52327;42.622;23.316;2022-12-08T10:25:53;11.10;;;7.43;;
65636;SDS011;52327;42.622;23.316;2022-12-08T10:28:25;19.90;;;8.35;;
65636;SDS011;52327;42.622;23.316;2022-12-08T10:30:51;17.08;;;9.15;;
65636;SDS011;52327;42.622;23.316;2022-12-08T10:33:17;11.02;;;6.65;;
65636;SDS011;52327;42.622;23.316;2022-12-08T10:35:51;4.30;;;2.67;;
65636;SDS011;52327;42.622;23.316;2022-12-08T10:40:53;4.32;;;2.33;;
65636;SDS011;52327;42.622;23.316;2022-12-08T10:43:25;2.67;;;2.05;;
65636;SDS011;52327;42.622;23.316;2022-12-08T10:45:51;5.78;;;2.40;;
65636;SDS011;52327;42.622;23.316;2022-12-08T10:50:57;11.02;;;5.78;;
65636;SDS011;52327;42.622;23.316;2022-12-08T11:03:34;6.50;;;3.87;;
65636;SDS011;52327;42.622;23.316;2022-12-08T11:06:18;4.32;;;3.28;;
65636;SDS011;52327;42.622;23.316;2022-12-08T11:08:48;5.28;;;2.80;;
65636;SDS011;52327;42.622;23.316;2022-12-08T11:11:16;4.18;;;2.38;;
65636;SDS011;52327;42.622;23.316;2022-12-08T11:13:42;2.80;;;2.35;;
65636;SDS011;52327;42.622;23.316;2022-12-08T11:16:10;4.38;;;2.35;;
65636;SDS011;52327;42.622;23.316;2022-12-08T11:18:42;4.43;;;1.58;;
65636;SDS011;52327;42.622;23.316;2022-12-08T11:21:17;7.28;;;2.75;;
65636;SDS011;52327;42.622;23.316;2022-12-08T11:23:47;5.45;;;2.35;;
65636;SDS011;52327;42.622;23.316;2022-12-08T11:27:14;4.60;;;2.38;;
65636;SDS011;52327;42.622;23.316;2022-12-08T11:29:26;3.97;;;2.55;;
65636;SDS011;52327;42.622;23.316;2022-12-08T11:31:56;3.42;;;2.13;;
65636;SDS011;52327;42.622;23.316;2022-12-08T11:37:22;2.85;;;2.00;;
65636;SDS011;52327;42.622;23.316;2022-12-08T11:39:53;2.30;;;1.88;;
65636;SDS011;52327;42.622;23.316;2022-12-08T11:42:23;3.63;;;2.20;;
65636;SDS011;52327;42.622;23.316;2022-12-08T11:45:01;3.03;;;1.80;;
65636;SDS011;52327;42.622;23.316;2022-12-08T11:47:36;2.72;;;1.75;;
65636;SDS011;52327;42.622;23.316;2022-12-08T11:50:50;7.93;;;4.15;;
65636;SDS011;52327;42.622;23.316;2022-12-08T11:53:03;6.75;;;4.00;;
65636;SDS011;52327;42.622;23.316;2022-12-08T11:55:48;7.50;;;4.80;;
65636;SDS011;52327;42.622;23.316;2022-12-08T12:01:00;10.23;;;4.35;;
65636;SDS011;52327;42.622;23.316;2022-12-08T12:04:11;5.47;;;3.92;;
65636;SDS011;52327;42.622;23.316;2022-12-08T12:06:37;4.70;;;3.42;;
65636;SDS011;52327;42.622;23.316;2022-12-08T12:12:23;12.13;;;5.15;;
65636;SDS011;52327;42.622;23.316;2022-12-08T12:18:09;11.73;;;6.28;;
65636;SDS011;52327;42.622;23.316;2022-12-08T12:20:30;9.02;;;5.80;;
65636;SDS011;52327;42.622;23.316;2022-12-08T12:25:26;9.80;;;5.10;;
65636;SDS011;52327;42.622;23.316;2022-12-08T12:27:54;7.80;;;4.68;;
65636;SDS011;52327;42.622;23.316;2022-12-08T12:30:24;15.00;;;5.25;;
65636;SDS011;52327;42.622;23.316;2022-12-08T12:32:52;8.77;;;6.38;;
65636;SDS011;52327;42.622;23.316;2022-12-08T12:35:29;8.13;;;5.10;;
65636;SDS011;52327;42.622;23.316;2022-12-08T12:38:03;12.25;;;5.43;;
65636;SDS011;52327;42.622;23.316;2022-12-08T12:40:56;9.85;;;5.97;;
65636;SDS011;52327;42.622;23.316;2022-12-08T12:43:27;8.00;;;4.32;;
65636;SDS011;52327;42.622;23.316;2022-12-08T12:46:36;8.57;;;5.22;;
65636;SDS011;52327;42.622;23.316;2022-12-08T12:48:53;14.38;;;4.88;;
65636;SDS011;52327;42.622;23.316;2022-12-08T12:51:57;9.63;;;4.90;;
65636;SDS011;52327;42.622;23.316;2022-12-08T12:54:26;6.28;;;4.40;;
65636;SDS011;52327;42.622;23.316;2022-12-08T12:57:18;7.88;;;4.00;;
65636;SDS011;52327;42.622;23.316;2022-12-08T13:00:06;18.45;;;4.88;;
65636;SDS011;52327;42.622;23.316;2022-12-08T13:02:45;7.68;;;3.70;;
65636;SDS011;52327;42.622;23.316;2022-12-08T13:10:30;6.45;;;3.55;;
65636;SDS011;52327;42.622;23.316;2022-12-08T13:19:10;6.65;;;4.15;;
65636;SDS011;52327;42.622;23.316;2022-12-08T13:21:37;8.75;;;4.40;;
65636;SDS011;52327;42.622;23.316;2022-12-08T13:31:45;6.22;;;4.05;;
65636;SDS011;52327;42.622;23.316;2022-12-08T13:47:46;8.63;;;5.13;;
65636;SDS011;52327;42.622;23.316;2022-12-08T13:50:40;8.00;;;4.38;;
65636;SDS011;52327;42.622;23.316;2022-12-08T13:53:14;5.93;;;3.47;;
65636;SDS011;52327;42.622;23.316;2022-12-08T13:55:47;2.92;;;2.42;;
65636;SDS011;52327;42.622;23.316;2022-12-08T14:03:33;6.07;;;3.88;;
65636;SDS011;52327;42.622;23.316;2022-12-08T14:06:34;5.55;;;3.47;;
65636;SDS011;52327;42.622;23.316;2022-12-08T14:09:01;4.65;;;3.55;;
65636;SDS011;52327;42.622;23.316;2022-12-08T14:11:33;4.50;;;2.15;;
65636;SDS011;52327;42.622;23.316;2022-12-08T14:14:07;9.60;;;4.13;;
65636;SDS011;52327;42.622;23.316;2022-12-08T14:16:59;8.30;;;2.97;;
65636;SDS011;52327;42.622;23.316;2022-12-08T14:19:26;7.32;;;3.55;;
65636;SDS011;52327;42.622;23.316;2022-12-08T14:22:00;7.40;;;4.82;;
65636;SDS011;52327;42.622;23.316;2022-12-08T14:24:32;6.40;;;3.80;;
65636;SDS011;52327;42.622;23.316;2022-12-08T14:27:01;8.30;;;4.10;;
65636;SDS011;52327;42.622;23.316;2022-12-08T14:29:36;3.83;;;3.13;;
65636;SDS011;52327;42.622;23.316;2022-12-08T14:37:54;6.13;;;3.28;;
65636;SDS011;52327;42.622;23.316;2022-12-08T14:40:21;3.88;;;2.88;;
65636;SDS011;52327;42.622;23.316;2022-12-08T14:48:24;7.28;;;3.58;;
65636;SDS011;52327;42.622;23.316;2022-12-08T14:56:07;6.50;;;3.30;;
65636;SDS011;52327;42.622;23.316;2022-12-08T14:58:33;4.53;;;3.17;;
65636;SDS011;52327;42.622;23.316;2022-12-08T15:00:58;7.30;;;3.38;;
65636;SDS011;52327;42.622;23.316;2022-12-08T15:03:25;9.32;;;4.30;;
65636;SDS011;52327;42.622;23.316;2022-12-08T15:06:02;13.20;;;7.60;;
65636;SDS011;52327;42.622;23.316;2022-12-08T15:08:29;8.77;;;5.53;;
65636;SDS011;52327;42.622;23.316;2022-12-08T15:13:46;11.68;;;7.82;;
65636;SDS011;52327;42.622;23.316;2022-12-08T15:16:24;15.57;;;8.23;;
65636;SDS011;52327;42.622;23.316;2022-12-08T15:21:40;5.45;;;3.78;;
65636;SDS011;52327;42.622;23.316;2022-12-08T15:24:09;12.68;;;5.60;;
65636;SDS011;52327;42.622;23.316;2022-12-08T15:26:40;7.00;;;4.28;;
65636;SDS011;52327;42.622;23.316;2022-12-08T15:29:08;7.65;;;4.63;;
65636;SDS011;52327;42.622;23.316;2022-12-08T15:31:35;6.43;;;4.32;;
65636;SDS011;52327;42.622;23.316;2022-12-08T15:34:01;7.22;;;4.88;;
65636;SDS011;52327;42.622;23.316;2022-12-08T15:36:26;5.60;;;4.13;;
65636;SDS011;52327;42.622;23.316;2022-12-08T15:38:51;7.57;;;5.07;;
65636;SDS011;52327;42.622;23.316;2022-12-08T15:41:17;9.68;;;4.97;;
65636;SDS011;52327;42.622;23.316;2022-12-08T15:43:42;5.57;;;3.65;;
65636;SDS011;52327;42.622;23.316;2022-12-08T15:46:08;5.25;;;3.75;;
65636;SDS011;52327;42.622;23.316;2022-12-08T15:48:35;8.63;;;4.47;;
65636;SDS011;52327;42.622;23.316;2022-12-08T15:51:01;7.30;;;4.28;;
65636;SDS011;52327;42.622;23.316;2022-12-08T15:53:27;4.65;;;3.70;;
65636;SDS011;52327;42.622;23.316;2022-12-08T15:55:52;8.52;;;5.32;;
65636;SDS011;52327;42.622;23.316;2022-12-08T15:58:19;5.90;;;4.20;;
65636;SDS011;52327;42.622;23.316;2022-12-08T16:00:47;9.32;;;4.32;;
65636;SDS011;52327;42.622;23.316;2022-12-08T16:03:22;6.32;;;4.53;;
65636;SDS011;52327;42.622;23.316;2022-12-08T16:05:50;7.85;;;4.28;;
65636;SDS011;52327;42.622;23.316;2022-12-08T16:08:16;6.47;;;5.18;;
65636;SDS011;52327;42.622;23.316;2022-12-08T16:10:42;11.38;;;4.47;;
65636;SDS011;52327;42.622;23.316;2022-12-08T16:13:18;8.50;;;3.80;;
65636;SDS011;52327;42.622;23.316;2022-12-08T16:16:04;5.22;;;3.58;;
65636;SDS011;52327;42.622;23.316;2022-12-08T16:18:34;5.18;;;3.20;;
65636;SDS011;52327;42.622;23.316;2022-12-08T16:21:02;12.07;;;4.60;;
65636;SDS011;52327;42.622;23.316;2022-12-08T16:23:27;8.65;;;4.75;;
65636;SDS011;52327;42.622;23.316;2022-12-08T16:25:53;7.35;;;4.95;;
65636;SDS011;52327;42.622;23.316;2022-12-08T16:28:19;13.02;;;6.45;;
65636;SDS011;52327;42.622;23.316;2022-12-08T16:30:44;17.85;;;8.88;;
65636;SDS011;52327;42.622;23.316;2022-12-08T16:33:10;20.95;;;12.95;;
65636;SDS011;52327;42.622;23.316;2022-12-08T16:35:36;12.93;;;5.75;;
65636;SDS011;52327;42.622;23.316;2022-12-08T16:38:01;9.32;;;4.50;;
65636;SDS011;52327;42.622;23.316;2022-12-08T16:40:28;2.97;;;2.40;;
65636;SDS011;52327;42.622;23.316;2022-12-08T16:42:53;8.68;;;5.32;;
65636;SDS011;52327;42.622;23.316;2022-12-08T16:45:23;13.77;;;5.50;;
65636;SDS011;52327;42.622;23.316;2022-12-08T16:47:51;7.13;;;4.05;;
65636;SDS011;52327;42.622;23.316;2022-12-08T16:50:19;6.07;;;4.22;;
65636;SDS011;52327;42.622;23.316;2022-12-08T16:52:47;10.15;;;5.32;;
65636;SDS011;52327;42.622;23.316;2022-12-08T16:55:14;7.47;;;5.00;;
65636;SDS011;52327;42.622;23.316;2022-12-08T16:57:41;11.73;;;6.20;;